Estación de Río Bueno
Ultimos registro cada 15 minutos 93
| N° | Estación | Fecha / Hora | Temperatura | Humedad | Lluvia | Velocidad | Dirección | Radiación | Presion |
| 93 | Río Bueno | 06-05-2026 23:00 | 6,6 | 94,7 | 0 | 0 | 284 | 0,6 | 1019,7 |
| 92 | Río Bueno | 06-05-2026 22:45 | 6,3 | 94,7 | 0 | 0 | 285 | 0,6 | 1019,5 |
| 91 | Río Bueno | 06-05-2026 22:30 | 5,2 | 94,3 | 0 | 0 | 284 | 0,6 | 1019,3 |
| 90 | Río Bueno | 06-05-2026 22:15 | 4,6 | 94 | 0 | 0 | 284 | 0,6 | 1018,9 |
| 89 | Río Bueno | 06-05-2026 22:00 | 4,1 | 93,9 | 0 | 0 | 284 | 0,6 | 1018,8 |
| 88 | Río Bueno | 06-05-2026 21:45 | 4,2 | 92,7 | 0 | 0 | 284 | 0,6 | 1018,7 |
| 87 | Río Bueno | 06-05-2026 21:30 | 5,3 | 92,9 | 0 | 0 | 284 | 0,6 | 1018,6 |
| 86 | Río Bueno | 06-05-2026 21:15 | 5,4 | 92,2 | 0 | 0 | 284 | 0,6 | 1018,4 |
| 85 | Río Bueno | 06-05-2026 21:00 | 5,3 | 89,9 | 0 | 0 | 275 | 0,6 | 1018,3 |
| 84 | Río Bueno | 06-05-2026 20:45 | 6 | 88,5 | 0 | 0 | 237 | 0,6 | 1018,2 |
| 83 | Río Bueno | 06-05-2026 20:30 | 7 | 86,8 | 0 | 0 | 237 | 0,6 | 1017,9 |
| 82 | Río Bueno | 06-05-2026 20:15 | 8,2 | 83,1 | 0 | 0,3 | 244 | 0,6 | 1017,8 |
| 81 | Río Bueno | 06-05-2026 20:00 | 8,8 | 82,5 | 0 | 0,7 | 247 | 0,6 | 1017,6 |
| 80 | Río Bueno | 06-05-2026 19:45 | 8 | 86,9 | 0 | 0,3 | 268 | 0,6 | 1017,3 |
| 79 | Río Bueno | 06-05-2026 19:30 | 8 | 87,1 | 0 | 0,3 | 298 | 0,6 | 1017 |
| 78 | Río Bueno | 06-05-2026 19:15 | 8,4 | 85,2 | 0 | 0,3 | 257 | 0,6 | 1016,8 |
| 77 | Río Bueno | 06-05-2026 19:00 | 9,4 | 83,4 | 0 | 0,7 | 256 | 0,6 | 1016,5 |
| 76 | Río Bueno | 06-05-2026 18:45 | 9,8 | 82,9 | 0 | 0,7 | 244 | 0,6 | 1016,2 |
| 75 | Río Bueno | 06-05-2026 18:30 | 10,2 | 79,7 | 0 | 0,7 | 251 | 0,6 | 1015,9 |
| 74 | Río Bueno | 06-05-2026 18:15 | 10,4 | 77,1 | 0 | 1 | 251 | 0,6 | 1015,6 |
| 73 | Río Bueno | 06-05-2026 18:00 | 10,4 | 78,9 | 0 | 0,7 | 247 | 8,1 | 1015,3 |
| 72 | Río Bueno | 06-05-2026 17:45 | 10,6 | 78,6 | 0 | 0,7 | 254 | 18,1 | 1014,9 |
| 71 | Río Bueno | 06-05-2026 17:30 | 11,2 | 75,8 | 0 | 0,7 | 243 | 43,1 | 1014,6 |
| 70 | Río Bueno | 06-05-2026 17:15 | 11,6 | 73,6 | 0 | 1 | 250 | 36,9 | 1014,4 |
| 69 | Río Bueno | 06-05-2026 17:00 | 11,8 | 73,7 | 0 | 1 | 226 | 88,1 | 1014 |
| 68 | Río Bueno | 06-05-2026 16:45 | 11,6 | 74,4 | 0 | 1,3 | 226 | 44,4 | 1013,5 |
| 67 | Río Bueno | 06-05-2026 16:30 | 12 | 73,8 | 0 | 1 | 227 | 58,1 | 1013,1 |
| 66 | Río Bueno | 06-05-2026 16:15 | 12,2 | 76,6 | 0 | 1,3 | 230 | 150,6 | 1012,8 |
| 65 | Río Bueno | 06-05-2026 16:00 | 12,9 | 74,7 | 0 | 1,7 | 209 | 134,4 | 1012,4 |
| 64 | Río Bueno | 06-05-2026 15:45 | 13,5 | 76,2 | 0 | 1,7 | 208 | 330,6 | 1012 |
| 63 | Río Bueno | 06-05-2026 15:30 | 12,6 | 76,8 | 0 | 1,3 | 216 | 229,4 | 1011,7 |
| 62 | Río Bueno | 06-05-2026 15:15 | 12,2 | 76,4 | 0 | 1,3 | 211 | 235,6 | 1011,4 |
| 61 | Río Bueno | 06-05-2026 15:00 | 11,6 | 77,6 | 0 | 1,3 | 222 | 175,6 | 1011,2 |
| 60 | Río Bueno | 06-05-2026 14:45 | 11,4 | 77,7 | 0 | 1,7 | 212 | 154,4 | 1010,8 |
| 59 | Río Bueno | 06-05-2026 14:30 | 11 | 78,2 | 0 | 2 | 215 | 111,9 | 1010,6 |
| 58 | Río Bueno | 06-05-2026 14:15 | 11,2 | 77,5 | 0 | 2 | 216 | 145,6 | 1010,5 |
| 57 | Río Bueno | 06-05-2026 14:00 | 11,3 | 78,5 | 0 | 2 | 220 | 194,4 | 1010,3 |
| 56 | Río Bueno | 06-05-2026 13:45 | 11,5 | 79,7 | 0 | 1,7 | 215 | 241,9 | 1010,2 |
| 55 | Río Bueno | 06-05-2026 13:30 | 10,7 | 81,4 | 0 | 2 | 234 | 111,9 | 1010 |
| 54 | Río Bueno | 06-05-2026 13:15 | 10,6 | 81,8 | 0 | 1,7 | 236 | 80,6 | 1009,8 |
| 53 | Río Bueno | 06-05-2026 13:00 | 10,4 | 82,4 | 0 | 2 | 229 | 96,9 | 1009,5 |
| 52 | Río Bueno | 06-05-2026 12:45 | 10,5 | 82,8 | 0 | 2 | 234 | 99,4 | 1009,5 |
| 51 | Río Bueno | 06-05-2026 12:30 | 10,3 | 84,3 | 0 | 2 | 227 | 116,9 | 1009,4 |
| 50 | Río Bueno | 06-05-2026 12:15 | 10,1 | 84,9 | 0 | 2,3 | 240 | 100,6 | 1009,3 |
| 49 | Río Bueno | 06-05-2026 12:00 | 9,8 | 87,9 | 0 | 2 | 247 | 76,9 | 1009,2 |
| 48 | Río Bueno | 06-05-2026 11:45 | 9,6 | 89 | 0 | 1,7 | 246 | 76,9 | 1009 |
| 47 | Río Bueno | 06-05-2026 11:30 | 9,3 | 90,4 | 0 | 1,3 | 247 | 71,9 | 1008,7 |
| 46 | Río Bueno | 06-05-2026 11:15 | 9 | 91,3 | 0 | 2 | 248 | 48,1 | 1008,4 |
| 45 | Río Bueno | 06-05-2026 11:00 | 8,9 | 91,4 | 0 | 2 | 236 | 30,6 | 1008,1 |
| 44 | Río Bueno | 06-05-2026 10:45 | 9 | 90,9 | 0 | 1,7 | 223 | 23,1 | 1007,8 |
| 43 | Río Bueno | 06-05-2026 10:30 | 9,1 | 91,2 | 0 | 1,7 | 213 | 41,9 | 1007,4 |
| 42 | Río Bueno | 06-05-2026 10:15 | 8,9 | 92 | 0 | 2,3 | 229 | 41,9 | 1007,3 |
| 41 | Río Bueno | 06-05-2026 10:00 | 8,8 | 92,9 | 0 | 2 | 226 | 24,4 | 1007,1 |
| 40 | Río Bueno | 06-05-2026 09:45 | 9 | 93,6 | 0 | 2 | 220 | 38,1 | 1007 |
| 39 | Río Bueno | 06-05-2026 09:30 | 9,1 | 93,6 | 0 | 2 | 218 | 33,1 | 1006,9 |
| 38 | Río Bueno | 06-05-2026 09:15 | 9 | 94,3 | 0 | 2 | 223 | 16,9 | 1006,6 |
| 37 | Río Bueno | 06-05-2026 09:00 | 9 | 94,8 | 0,4 | 1,7 | 239 | 8,1 | 1006,4 |
| 36 | Río Bueno | 06-05-2026 08:45 | 9 | 95 | 0,2 | 1 | 243 | 8,1 | 1006,2 |
| 35 | Río Bueno | 06-05-2026 08:30 | 9 | 94,8 | 0,4 | 1,7 | 229 | 5,6 | 1005,8 |
| 34 | Río Bueno | 06-05-2026 08:15 | 9 | 95 | 0 | 1,7 | 223 | 5,6 | 1005,6 |
| 33 | Río Bueno | 06-05-2026 08:00 | 9 | 95,4 | 0,2 | 1,7 | 223 | 3,1 | 1005,4 |
| 32 | Río Bueno | 06-05-2026 07:45 | 9,1 | 95,8 | 0,2 | 1,7 | 232 | 0,6 | 1005,5 |
| 31 | Río Bueno | 06-05-2026 07:30 | 9,1 | 96,2 | 0,2 | 1 | 225 | 0,6 | 1005,5 |
| 30 | Río Bueno | 06-05-2026 07:15 | 9,2 | 96,3 | 0,2 | 1,3 | 230 | 0,6 | 1005,3 |
| 29 | Río Bueno | 06-05-2026 07:00 | 9,2 | 96,4 | 0,6 | 1 | 244 | 0,6 | 1005 |
| 28 | Río Bueno | 06-05-2026 06:45 | 9,3 | 96,4 | 0,4 | 1 | 250 | 0,6 | 1005,1 |
| 27 | Río Bueno | 06-05-2026 06:30 | 9,4 | 96,5 | 0,2 | 1 | 244 | 0,6 | 1004,9 |
| 26 | Río Bueno | 06-05-2026 06:15 | 9,4 | 96,5 | 0,4 | 1,3 | 232 | 0,6 | 1004,8 |
| 25 | Río Bueno | 06-05-2026 06:00 | 9,4 | 96,6 | 0,2 | 1,3 | 239 | 0,6 | 1004,6 |
| 24 | Río Bueno | 06-05-2026 05:45 | 9,4 | 96,7 | 0,2 | 1 | 254 | 0,6 | 1004,6 |
| 23 | Río Bueno | 06-05-2026 05:30 | 9,4 | 96,7 | 0,2 | 1 | 251 | 0,6 | 1004,5 |
| 22 | Río Bueno | 06-05-2026 05:15 | 9,4 | 96,7 | 0,4 | 0,7 | 257 | 0,6 | 1004,3 |
| 21 | Río Bueno | 06-05-2026 05:00 | 9,4 | 96,7 | 0 | 0,7 | 253 | 0,6 | 1004,2 |
| 20 | Río Bueno | 06-05-2026 04:45 | 9,5 | 96,7 | 1,4 | 1 | 251 | 0,6 | 1004,1 |
| 19 | Río Bueno | 06-05-2026 04:30 | 9,6 | 96,6 | 1,6 | 0,7 | 257 | 0,6 | 1004,2 |
| 18 | Río Bueno | 06-05-2026 04:15 | 9,6 | 96,6 | 1,4 | 1 | 257 | 0,6 | 1004,5 |
| 17 | Río Bueno | 06-05-2026 04:00 | 9,7 | 96,5 | 1 | 0,7 | 261 | 0,6 | 1004,5 |
| 16 | Río Bueno | 06-05-2026 03:45 | 9,9 | 96,4 | 1,4 | 0,7 | 299 | 0,6 | 1004,9 |
| 15 | Río Bueno | 06-05-2026 03:30 | 10 | 96,3 | 1 | 0,3 | 277 | 0,6 | 1004,7 |
| 14 | Río Bueno | 06-05-2026 03:15 | 10,1 | 96,3 | 1,6 | 0 | 248 | 0,6 | 1004,5 |
| 13 | Río Bueno | 06-05-2026 03:00 | 10,1 | 96,3 | 1,6 | 0,3 | 215 | 0,6 | 1004,7 |
| 12 | Río Bueno | 06-05-2026 02:45 | 10,2 | 96,2 | 1,8 | 0,3 | 227 | 0,6 | 1004,7 |
| 11 | Río Bueno | 06-05-2026 02:30 | 10,3 | 96,2 | 3 | 0,3 | 237 | 0,6 | 1004,7 |
| 10 | Río Bueno | 06-05-2026 02:15 | 10,3 | 96,1 | 2,4 | 0,7 | 204 | 0,6 | 1004,5 |
| 9 | Río Bueno | 06-05-2026 02:00 | 10,4 | 96 | 2,6 | 1,3 | 219 | 0,6 | 1004,5 |
| 8 | Río Bueno | 06-05-2026 01:45 | 10,6 | 95,7 | 2 | 2 | 219 | 0,6 | 1004,4 |
| 7 | Río Bueno | 06-05-2026 01:30 | 11,2 | 95,1 | 1,6 | 1,3 | 225 | 0,6 | 1004,3 |
| 6 | Río Bueno | 06-05-2026 01:15 | 12,8 | 93,3 | 1 | 0,7 | 307 | 0,6 | 1004,1 |
| 5 | Río Bueno | 06-05-2026 01:00 | 14 | 93,3 | 0 | 0,7 | 8 | 0,6 | 1004,1 |
| 4 | Río Bueno | 06-05-2026 00:45 | 14 | 93,2 | 0 | 1 | 13 | 0,6 | 1004,1 |
| 3 | Río Bueno | 06-05-2026 00:30 | 14,1 | 92,9 | 0 | 1 | 17 | 0,6 | 1004,1 |
| 2 | Río Bueno | 06-05-2026 00:15 | 14,1 | 92,9 | 0 | 1 | 18 | 0,6 | 1004,2 |
| 1 | Río Bueno | 06-05-2026 00:00 | 14,2 | 92,5 | 0 | 1,3 | 22 | 0,6 | 1004,1 |